createdAt,value
2023-03-27T05:00:28.975Z,44.00
2023-03-27T05:01:31.846Z,44.00
2023-03-27T05:02:30.074Z,48.00
2023-03-27T05:03:30.221Z,48.00
2023-03-27T05:04:30.194Z,48.00
2023-03-27T05:05:30.274Z,48.00
2023-03-27T05:06:30.312Z,48.00
2023-03-27T05:07:30.381Z,48.00
2023-03-27T05:08:30.445Z,48.00
2023-03-27T05:09:30.544Z,48.00
2023-03-27T05:10:30.613Z,48.00
2023-03-27T05:11:30.652Z,48.00
2023-03-27T05:12:30.706Z,52.00
2023-03-27T05:13:30.811Z,52.00
2023-03-27T05:14:30.832Z,52.00
2023-03-27T05:15:30.926Z,52.00
2023-03-27T05:16:30.930Z,52.00
2023-03-27T05:17:31.030Z,52.00
2023-03-27T05:18:31.046Z,52.00
2023-03-27T05:19:31.117Z,56.00
2023-03-27T05:20:31.206Z,52.00
2023-03-27T05:21:31.212Z,56.00
2023-03-27T05:22:31.325Z,56.00
2023-03-27T05:23:31.411Z,56.00
2023-03-27T05:24:31.470Z,56.00
2023-03-27T05:25:31.593Z,56.00
2023-03-27T05:26:31.599Z,60.00
2023-03-27T05:27:31.679Z,64.00
2023-03-27T05:28:31.734Z,64.00
2023-03-27T05:29:47.366Z,64.00
2023-03-27T05:30:31.958Z,68.00
2023-03-27T05:31:31.959Z,68.00
2023-03-27T05:32:32.045Z,72.00
2023-03-27T05:33:32.248Z,72.00
2023-03-27T05:34:32.179Z,72.00
2023-03-27T05:35:32.310Z,72.00
2023-03-27T05:36:32.322Z,80.00
2023-03-27T05:37:32.388Z,80.00
2023-03-27T05:38:32.460Z,88.00
2023-03-27T05:39:32.536Z,88.00
2023-03-27T05:40:32.648Z,96.00
2023-03-27T05:41:32.664Z,88.00
2023-03-27T05:42:32.738Z,92.00
2023-03-27T05:43:32.805Z,92.00
2023-03-27T05:44:32.904Z,96.00
2023-03-27T05:45:32.953Z,108.00
2023-03-27T05:46:33.004Z,120.00
2023-03-27T05:47:33.056Z,128.00
2023-03-27T05:48:33.112Z,128.00
2023-03-27T05:49:34.142Z,128.00
2023-03-27T05:50:33.288Z,140.00
2023-03-27T05:51:33.321Z,124.00
2023-03-27T05:52:33.394Z,124.00
2023-03-27T05:53:33.464Z,124.00
2023-03-27T05:56:20.434Z,148.00
2023-03-27T05:57:21.459Z,140.00
2023-03-27T05:58:21.506Z,140.00
2023-03-27T05:59:21.585Z,140.00
2023-03-27T06:00:21.645Z,180.00
2023-03-27T06:01:21.783Z,192.00
2023-03-27T06:02:21.878Z,220.00
2023-03-27T06:03:21.935Z,232.00
2023-03-27T06:04:21.863Z,232.00
2023-03-27T06:05:21.948Z,228.00
2023-03-27T06:06:22.050Z,208.00
2023-03-27T06:07:22.061Z,204.00
2023-03-27T06:08:22.131Z,184.00
2023-03-27T06:09:22.190Z,176.00
2023-03-27T06:10:22.250Z,200.00
2023-03-27T06:11:22.347Z,164.00
2023-03-27T06:12:22.383Z,156.00
2023-03-27T06:13:22.445Z,168.00
2023-03-27T06:14:22.511Z,180.00
2023-03-27T06:15:22.573Z,168.00
2023-03-27T06:16:22.761Z,192.00
2023-03-27T06:17:22.695Z,176.00
2023-03-27T06:18:22.768Z,184.00
2023-03-27T06:19:22.816Z,208.00
2023-03-27T06:20:22.875Z,208.00
2023-03-27T06:21:22.958Z,236.00
2023-03-27T06:22:22.979Z,240.00
2023-03-27T06:23:23.058Z,228.00
2023-03-27T06:24:23.116Z,228.00
2023-03-27T06:25:23.219Z,272.00
2023-03-27T06:26:23.277Z,336.00
2023-03-27T06:27:23.313Z,400.00
2023-03-27T06:28:23.341Z,348.00
2023-03-27T06:29:23.424Z,348.00
2023-03-27T06:30:23.503Z,392.00
2023-03-27T06:31:23.712Z,288.00
2023-03-27T06:32:24.124Z,292.00
2023-03-27T06:33:23.686Z,280.00
2023-03-27T06:34:23.746Z,276.00
2023-03-27T06:35:24.634Z,296.00
2023-03-27T06:36:24.004Z,284.00
2023-03-27T06:37:23.917Z,268.00
2023-03-27T06:38:23.978Z,264.00
2023-03-27T06:39:24.073Z,276.00
2023-03-27T06:40:24.088Z,340.00
2023-03-27T06:41:24.218Z,392.00
2023-03-27T06:42:24.237Z,468.00
2023-03-27T06:43:24.412Z,580.00
2023-03-27T06:44:24.358Z,520.00
2023-03-27T06:45:24.424Z,448.00
2023-03-27T06:46:27.658Z,504.00
2023-03-27T06:47:24.691Z,400.00
2023-03-27T06:48:24.655Z,448.00
2023-03-27T06:49:24.730Z,504.00
2023-03-27T06:50:24.743Z,512.00
2023-03-27T06:51:24.878Z,500.00
2023-03-27T06:52:24.835Z,520.00
2023-03-27T06:53:27.713Z,592.00
2023-03-27T06:54:24.943Z,652.00
2023-03-27T06:55:25.019Z,604.00
2023-03-27T06:56:25.112Z,556.00
2023-03-27T06:57:25.134Z,544.00
2023-03-27T06:58:25.212Z,664.00
2023-03-27T06:59:25.296Z,680.00
2023-03-27T07:00:25.304Z,824.00
2023-03-27T07:01:25.430Z,620.00
2023-03-27T07:02:25.431Z,596.00
2023-03-27T07:03:25.479Z,656.00
2023-03-27T07:04:25.538Z,760.00
2023-03-27T07:05:25.629Z,920.00
2023-03-27T07:06:25.701Z,972.00
2023-03-27T07:07:25.759Z,840.00
2023-03-27T07:11:19.076Z,1528.00
2023-03-27T07:12:19.865Z,1704.00
2023-03-27T07:13:19.901Z,1320.00
2023-03-27T07:14:19.980Z,1136.00
2023-03-27T07:15:20.355Z,1460.00
2023-03-27T07:16:20.189Z,1348.00
2023-03-27T07:17:20.237Z,1340.00
2023-03-27T07:18:20.291Z,1208.00
2023-03-27T07:19:20.391Z,980.00
2023-03-27T07:20:20.429Z,952.00
2023-03-27T07:21:20.505Z,1032.00
2023-03-27T07:22:21.883Z,1164.00
2023-03-27T07:23:20.658Z,1468.00
2023-03-27T07:24:20.709Z,1708.00
2023-03-27T07:25:21.512Z,1560.00
2023-03-27T07:26:20.851Z,1336.00
2023-03-27T07:27:20.925Z,1276.00
2023-03-27T07:28:20.930Z,1464.00
2023-03-27T07:29:20.997Z,1684.00
2023-03-27T07:30:21.061Z,1500.00
2023-03-27T07:31:35.026Z,1256.00
2023-03-27T07:32:34.039Z,928.00
2023-03-27T07:33:21.495Z,796.00
2023-03-27T07:34:21.371Z,740.00
2023-03-27T07:35:21.426Z,736.00
2023-03-27T07:36:21.457Z,708.00
2023-03-27T07:37:21.552Z,920.00
2023-03-27T07:38:21.591Z,984.00
2023-03-27T07:39:21.638Z,884.00
2023-03-27T07:41:21.754Z,832.00
2023-03-27T07:42:21.787Z,944.00
2023-03-27T07:43:21.836Z,968.00
2023-03-27T07:44:21.893Z,1048.00
2023-03-27T07:45:21.983Z,1604.00
2023-03-27T07:46:22.148Z,1436.00
2023-03-27T07:47:22.163Z,1584.00
2023-03-27T07:48:22.157Z,1780.00
2023-03-27T07:49:39.323Z,1996.00
2023-03-27T07:50:22.271Z,1932.00
2023-03-27T07:51:22.343Z,1900.00
2023-03-27T07:52:22.413Z,1624.00
2023-03-27T07:53:33.029Z,1672.00
2023-03-27T07:54:22.580Z,1692.00
2023-03-27T07:55:22.629Z,1568.00
2023-03-27T07:56:22.701Z,1760.00
2023-03-27T07:57:22.849Z,1596.00
2023-03-27T07:58:23.091Z,1940.00
2023-03-27T07:59:22.929Z,1868.00
2023-03-27T08:00:23.064Z,1760.00
2023-03-27T08:01:23.056Z,1972.00
2023-03-27T08:02:23.122Z,1632.00
2023-03-27T08:05:11.447Z,1860.00
2023-03-27T08:06:12.228Z,1884.00
2023-03-27T08:07:12.313Z,1624.00
2023-03-27T08:08:12.399Z,1584.00
2023-03-27T08:09:12.406Z,1732.00
2023-03-27T08:10:12.464Z,1568.00
2023-03-27T08:11:23.182Z,1348.00
2023-03-27T08:12:12.580Z,940.00
2023-03-27T08:13:12.681Z,1144.00
2023-03-27T08:14:12.716Z,1380.00
2023-03-27T08:15:12.753Z,1960.00
2023-03-27T08:16:12.859Z,2980.00
2023-03-27T08:17:16.243Z,3260.00
2023-03-27T08:18:13.026Z,3656.00
2023-03-27T08:19:13.026Z,4212.00
2023-03-27T08:20:13.118Z,6744.00
2023-03-27T08:21:13.146Z,9748.00
2023-03-27T08:22:13.220Z,7572.00
2023-03-27T08:23:13.760Z,5088.00
2023-03-27T08:24:13.277Z,5748.00
2023-03-27T08:25:13.368Z,9432.00
2023-03-27T08:26:13.444Z,47680.00
2023-03-27T08:27:13.526Z,33248.00
2023-03-27T08:28:13.584Z,6728.00
2023-03-27T08:29:13.633Z,14436.00
2023-03-27T08:30:15.503Z,12800.00
2023-03-27T08:31:13.771Z,23040.00
2023-03-27T08:32:13.793Z,15708.00
2023-03-27T08:33:13.830Z,10132.00
2023-03-27T08:34:13.912Z,7760.00
2023-03-27T08:35:14.004Z,8776.00
2023-03-27T08:36:14.094Z,13280.00
2023-03-27T08:37:14.155Z,21408.00
2023-03-27T08:38:25.784Z,17576.00
2023-03-27T08:39:14.317Z,25440.00
2023-03-27T08:40:14.338Z,11612.00
2023-03-27T08:41:14.419Z,12556.00
2023-03-27T08:42:14.422Z,15140.00
2023-03-27T08:43:14.491Z,6840.00
2023-03-27T08:44:14.574Z,14076.00
2023-03-27T08:45:14.629Z,11560.00
2023-03-27T08:46:14.744Z,13892.00
2023-03-27T08:47:14.748Z,12040.00
2023-03-27T08:48:14.841Z,13880.00
2023-03-27T08:49:14.912Z,11332.00
2023-03-27T08:50:14.976Z,13868.00
2023-03-27T08:51:15.060Z,10104.00
2023-03-27T08:52:15.113Z,11592.00
2023-03-27T08:53:15.196Z,12924.00
2023-03-27T08:54:15.279Z,10676.00
2023-03-27T08:55:15.303Z,12572.00
2023-03-27T08:56:15.362Z,11340.00
2023-03-27T08:57:15.563Z,7816.00
2023-03-27T08:58:15.469Z,9136.00
2023-03-27T08:59:17.357Z,10772.00
2023-03-27T09:00:15.608Z,4724.00
2023-03-27T09:01:15.698Z,3884.00
2023-03-27T09:02:15.757Z,6064.00
2023-03-27T09:03:15.939Z,4752.00
2023-03-27T09:04:15.879Z,72224.00
2023-03-27T09:05:15.951Z,29984.00
2023-03-27T09:06:16.021Z,64704.00
2023-03-27T09:07:16.084Z,64800.00
2023-03-27T09:08:16.148Z,36192.00
2023-03-27T09:09:16.224Z,70752.00
2023-03-27T09:10:16.300Z,54688.00
2023-03-27T09:11:16.356Z,70176.00
2023-03-27T09:12:16.418Z,66112.00
2023-03-27T09:13:16.498Z,65216.00
2023-03-27T09:14:16.598Z,63264.00
2023-03-27T09:15:16.659Z,65280.00
2023-03-27T09:16:16.754Z,8936.00
2023-03-27T09:17:16.794Z,4456.00
2023-03-27T09:18:16.845Z,4520.00
2023-03-27T09:19:16.950Z,6060.00
2023-03-27T09:20:16.967Z,6896.00
2023-03-27T09:21:17.019Z,3124.00
2023-03-27T09:22:17.142Z,3572.00
2023-03-27T09:23:19.125Z,3456.00
2023-03-27T09:24:17.214Z,4540.00
2023-03-27T09:25:17.239Z,19744.00
2023-03-27T09:26:17.304Z,5596.00
2023-03-27T09:27:17.365Z,3432.00
2023-03-27T09:28:17.431Z,4444.00
2023-03-27T09:29:20.047Z,62208.00
2023-03-27T09:30:17.606Z,62560.00
2023-03-27T09:31:17.625Z,61440.00
2023-03-27T09:32:17.674Z,61472.00
2023-03-27T09:33:18.014Z,62720.00
2023-03-27T09:34:17.838Z,63040.00
2023-03-27T09:35:17.891Z,64800.00
2023-03-27T09:36:17.886Z,68160.00
2023-03-27T09:37:18.147Z,56224.00
2023-03-27T09:38:18.020Z,68832.00
2023-03-27T09:39:18.122Z,65760.00
2023-03-27T09:40:18.159Z,4268.00
2023-03-27T09:41:18.211Z,4384.00
2023-03-27T09:42:18.264Z,4660.00
2023-03-27T09:43:18.374Z,5112.00
2023-03-27T09:44:18.454Z,5212.00
2023-03-27T09:45:18.460Z,69600.00
2023-03-27T09:46:18.579Z,70944.00
2023-03-27T09:47:18.611Z,12016.00
2023-03-27T09:48:18.675Z,12316.00
2023-03-27T09:49:18.764Z,5912.00
2023-03-27T09:50:18.814Z,67968.00
2023-03-27T09:51:18.872Z,55712.00
2023-03-27T09:52:18.952Z,66176.00
2023-03-27T09:53:19.055Z,8380.00
2023-03-27T09:54:19.128Z,6380.00
2023-03-27T09:55:19.222Z,3812.00
2023-03-27T09:56:19.219Z,2360.00
2023-03-27T09:57:19.306Z,1804.00
2023-03-27T09:58:19.319Z,1724.00
2023-03-27T09:59:19.400Z,2276.00
2023-03-27T10:00:19.404Z,1652.00
2023-03-27T10:01:19.528Z,2352.00
2023-03-27T10:02:19.558Z,2892.00
2023-03-27T10:03:19.690Z,8304.00
2023-03-27T10:04:19.914Z,8032.00
2023-03-27T10:05:19.751Z,9036.00
2023-03-27T10:06:19.833Z,10588.00
2023-03-27T10:09:13.852Z,7368.00
2023-03-27T10:10:15.056Z,3364.00
2023-03-27T10:11:14.975Z,3584.00
2023-03-27T10:12:15.050Z,7392.00
2023-03-27T10:13:15.148Z,4680.00
2023-03-27T10:14:15.142Z,3036.00
2023-03-27T10:15:15.250Z,2580.00
2023-03-27T10:16:15.372Z,3068.00
2023-03-27T10:17:15.357Z,2940.00
2023-03-27T10:18:15.418Z,3284.00
2023-03-27T10:19:15.436Z,4000.00
2023-03-27T10:20:15.693Z,6756.00
2023-03-27T10:21:15.566Z,6084.00
2023-03-27T10:22:15.682Z,5476.00
2023-03-27T10:23:15.694Z,5328.00
2023-03-27T10:24:15.747Z,5268.00
2023-03-27T10:25:15.829Z,5732.00
2023-03-27T10:26:15.893Z,5924.00
2023-03-27T10:27:15.940Z,5864.00
2023-03-27T10:30:09.945Z,10644.00
2023-03-27T10:31:11.027Z,4648.00
2023-03-27T10:32:11.156Z,4996.00
2023-03-27T10:33:11.157Z,6320.00
2023-03-27T10:34:11.178Z,5340.00
2023-03-27T10:35:11.240Z,8528.00
2023-03-27T10:36:11.390Z,44896.00
2023-03-27T10:37:11.353Z,6344.00
2023-03-27T10:38:11.430Z,5320.00
2023-03-27T10:39:11.525Z,4768.00
2023-03-27T10:40:11.585Z,7008.00
2023-03-27T10:41:11.677Z,29696.00
2023-03-27T10:42:11.703Z,7320.00
2023-03-27T10:43:12.798Z,5960.00
2023-03-27T10:44:11.848Z,3640.00
2023-03-27T10:45:11.913Z,3272.00
2023-03-27T10:46:12.072Z,3736.00
2023-03-27T10:47:12.030Z,3792.00
2023-03-27T10:48:12.096Z,2748.00
2023-03-27T10:49:12.174Z,2268.00
2023-03-27T10:50:12.234Z,2224.00
2023-03-27T10:51:12.333Z,2788.00
2023-03-27T10:52:12.373Z,43584.00
2023-03-27T10:53:12.611Z,42336.00
2023-03-27T10:54:12.562Z,42560.00
2023-03-27T10:55:12.637Z,41504.00
2023-03-27T10:56:12.699Z,41216.00
2023-03-27T10:57:12.800Z,41152.00
2023-03-27T10:58:12.753Z,42048.00
2023-03-27T10:59:12.825Z,36960.00
2023-03-27T11:02:08.728Z,4392.00
2023-03-27T11:03:07.907Z,3332.00
2023-03-27T11:04:07.955Z,3252.00
2023-03-27T11:05:07.956Z,4224.00
2023-03-27T11:06:08.018Z,4884.00
2023-03-27T11:07:08.110Z,5312.00
2023-03-27T11:08:08.208Z,3712.00
2023-03-27T11:09:08.198Z,2832.00
2023-03-27T11:12:02.164Z,32640.00
2023-03-27T11:13:03.254Z,32608.00
2023-03-27T11:14:03.371Z,31360.00
2023-03-27T11:15:03.410Z,30272.00
2023-03-27T11:16:03.406Z,18560.00
2023-03-27T11:17:03.567Z,21120.00
2023-03-27T11:18:03.592Z,4236.00
2023-03-27T11:19:04.269Z,2420.00
2023-03-27T11:20:10.772Z,1692.00
2023-03-27T11:21:04.033Z,1324.00
2023-03-27T11:22:03.826Z,1100.00
2023-03-27T11:23:03.837Z,944.00
2023-03-27T11:24:04.118Z,920.00
2023-03-27T11:25:04.097Z,1068.00
2023-03-27T11:26:04.371Z,1340.00
2023-03-27T11:27:04.072Z,1932.00
2023-03-27T11:28:04.277Z,16992.00
2023-03-27T11:29:04.157Z,21056.00
2023-03-27T11:30:04.211Z,20544.00
2023-03-27T11:31:11.561Z,19552.00
2023-03-27T11:32:04.329Z,15168.00
2023-03-27T11:33:04.438Z,10204.00
2023-03-27T11:34:04.446Z,9372.00
2023-03-27T11:38:48.677Z,4660.00
2023-03-27T11:39:49.571Z,3800.00
2023-03-27T11:40:49.700Z,2860.00
2023-03-27T11:41:50.376Z,1984.00
2023-03-27T11:42:49.744Z,1340.00
2023-03-27T11:43:49.832Z,1160.00
2023-03-27T11:44:50.154Z,1204.00
2023-03-27T11:45:50.227Z,1448.00
2023-03-27T11:46:50.134Z,1788.00
2023-03-27T11:47:56.168Z,2256.00
2023-03-27T11:48:50.630Z,2696.00
2023-03-27T11:49:51.248Z,2776.00
2023-03-27T11:52:44.310Z,4344.00
2023-03-27T11:53:45.172Z,3288.00
2023-03-27T11:54:46.970Z,4364.00
2023-03-27T11:55:45.326Z,4304.00
2023-03-27T11:56:45.381Z,3988.00
2023-03-27T11:57:45.381Z,4584.00
2023-03-27T11:58:45.436Z,4224.00
2023-03-27T11:59:45.529Z,5020.00
2023-03-27T12:00:45.540Z,4520.00
2023-03-27T12:01:45.632Z,4684.00
2023-03-27T12:04:39.666Z,5648.00
2023-03-27T12:05:40.745Z,5548.00
2023-03-27T12:06:40.772Z,4696.00
2023-03-27T12:07:46.575Z,4600.00
2023-03-27T12:08:40.976Z,4476.00
2023-03-27T12:09:40.951Z,4332.00
2023-03-27T12:10:41.286Z,4072.00
2023-03-27T12:11:41.079Z,3832.00
2023-03-27T12:12:41.239Z,3668.00
2023-03-27T12:13:42.671Z,3460.00
2023-03-27T12:16:35.391Z,3360.00
2023-03-27T12:17:36.370Z,3332.00
2023-03-27T12:18:36.713Z,3288.00
2023-03-27T12:19:38.965Z,3144.00
2023-03-27T12:20:43.635Z,2924.00
2023-03-27T12:21:36.582Z,2700.00
2023-03-27T12:22:36.646Z,2376.00
2023-03-27T12:23:36.729Z,1660.00
2023-03-27T12:24:36.857Z,1224.00
2023-03-27T12:25:37.130Z,984.00
2023-03-27T12:26:36.933Z,840.00
2023-03-27T12:27:37.433Z,700.00
2023-03-27T12:28:38.333Z,988.00
2023-03-27T12:29:37.137Z,1384.00
2023-03-27T12:30:37.270Z,2216.00
2023-03-27T12:31:37.305Z,3376.00
2023-03-27T12:32:40.170Z,4424.00
2023-03-27T12:33:40.836Z,3816.00
2023-03-27T12:34:39.315Z,3656.00
2023-03-27T12:35:37.539Z,3496.00
2023-03-27T12:36:37.532Z,3336.00
2023-03-27T12:37:37.535Z,3000.00
2023-03-27T12:38:37.595Z,2548.00
2023-03-27T12:39:37.667Z,2500.00
2023-03-27T12:40:37.784Z,2480.00
2023-03-27T12:41:37.850Z,2352.00
2023-03-27T12:42:43.900Z,2752.00
2023-03-27T12:43:37.933Z,2792.00
2023-03-27T12:44:38.073Z,2384.00
2023-03-27T12:45:47.429Z,1908.00
2023-03-27T12:46:38.347Z,1384.00
2023-03-27T12:47:38.277Z,1032.00
2023-03-27T12:48:38.284Z,924.00
2023-03-27T12:49:46.985Z,1004.00
2023-03-27T12:50:38.429Z,1124.00
2023-03-27T12:51:38.491Z,1480.00
2023-03-27T12:52:38.581Z,1764.00
2023-03-27T12:53:38.646Z,1872.00
2023-03-27T12:54:38.841Z,1800.00
2023-03-27T12:55:38.808Z,1584.00
2023-03-27T12:56:38.956Z,1380.00
2023-03-27T12:57:39.008Z,1256.00
2023-03-27T12:58:38.984Z,1364.00
2023-03-27T12:59:39.015Z,1432.00
2023-03-27T13:00:39.106Z,1320.00
2023-03-27T13:01:51.196Z,1504.00
2023-03-27T13:02:39.315Z,2132.00
2023-03-27T13:03:39.307Z,2952.00
2023-03-27T13:04:39.362Z,3284.00
2023-03-27T13:05:39.374Z,3236.00
2023-03-27T13:06:39.436Z,2768.00
2023-03-27T13:07:39.450Z,2372.00
2023-03-27T13:08:39.548Z,2504.00
2023-03-27T13:09:39.597Z,3256.00
2023-03-27T13:10:39.658Z,3228.00
2023-03-27T13:11:39.755Z,3192.00
2023-03-27T13:12:39.778Z,2972.00
2023-03-27T13:13:39.845Z,2092.00
2023-03-27T13:14:39.964Z,1600.00
2023-03-27T13:15:40.010Z,1656.00
2023-03-27T13:16:40.073Z,2092.00
2023-03-27T13:17:40.191Z,2808.00
2023-03-27T13:18:40.149Z,2976.00
2023-03-27T13:19:40.224Z,2416.00
2023-03-27T13:20:40.271Z,2508.00
2023-03-27T13:21:40.352Z,2608.00
2023-03-27T13:22:40.459Z,2676.00
2023-03-27T13:23:40.487Z,2580.00
2023-03-27T13:24:40.556Z,2432.00
2023-03-27T13:25:40.652Z,2140.00
2023-03-27T13:26:40.740Z,1696.00
2023-03-27T13:27:40.737Z,2724.00
2023-03-27T13:28:40.823Z,2216.00
2023-03-27T13:29:40.898Z,2204.00
2023-03-27T13:30:40.974Z,2184.00
2023-03-27T13:31:41.070Z,1996.00
2023-03-27T13:32:41.170Z,1652.00
2023-03-27T13:33:41.212Z,1404.00
2023-03-27T13:34:41.319Z,1196.00
2023-03-27T13:35:41.491Z,872.00
2023-03-27T13:36:41.395Z,564.00
2023-03-27T13:37:41.457Z,552.00
2023-03-27T13:38:41.501Z,676.00
2023-03-27T13:39:41.576Z,772.00
2023-03-27T13:40:41.671Z,832.00
2023-03-27T13:41:41.747Z,868.00
2023-03-27T13:42:41.774Z,1100.00
2023-03-27T13:43:41.798Z,1368.00
2023-03-27T13:44:41.903Z,1720.00
2023-03-27T13:45:41.961Z,1888.00
2023-03-27T13:46:42.063Z,1848.00
2023-03-27T13:47:42.164Z,1580.00
2023-03-27T13:48:42.095Z,1444.00
2023-03-27T13:49:42.190Z,1348.00
2023-03-27T13:50:42.245Z,1764.00
2023-03-27T13:51:42.334Z,2216.00
2023-03-27T13:52:42.409Z,2568.00
2023-03-27T13:53:42.411Z,2820.00
2023-03-27T13:54:42.466Z,2896.00
2023-03-27T13:55:42.549Z,2900.00
2023-03-27T13:56:42.651Z,3112.00
2023-03-27T13:57:42.684Z,2908.00
2023-03-27T13:58:42.910Z,2720.00
2023-03-27T13:59:42.827Z,2552.00
2023-03-27T14:00:42.885Z,2292.00
2023-03-27T14:01:43.028Z,2064.00
2023-03-27T14:02:43.124Z,1808.00
2023-03-27T14:03:43.161Z,1440.00
2023-03-27T14:04:43.152Z,1244.00
2023-03-27T14:05:43.225Z,1044.00
2023-03-27T14:06:43.298Z,832.00
2023-03-27T14:07:43.340Z,764.00
2023-03-27T14:08:43.431Z,604.00
2023-03-27T14:09:43.452Z,836.00
2023-03-27T14:10:43.507Z,1440.00
2023-03-27T14:15:25.517Z,2660.00
2023-03-27T14:16:26.589Z,4000.00
2023-03-27T14:17:26.637Z,4192.00
2023-03-27T14:18:26.720Z,3980.00
2023-03-27T14:19:26.769Z,3468.00
2023-03-27T14:20:26.862Z,3032.00
2023-03-27T14:23:20.803Z,2356.00
2023-03-27T14:24:21.838Z,2316.00
2023-03-27T14:25:21.943Z,2308.00
2023-03-27T14:26:22.554Z,2296.00
2023-03-27T14:27:22.036Z,2296.00
2023-03-27T14:28:22.070Z,1940.00
2023-03-27T14:29:22.143Z,832.00
2023-03-27T14:30:22.198Z,952.00
2023-03-27T14:31:22.301Z,2564.00
2023-03-27T14:32:22.354Z,2868.00
2023-03-27T14:33:22.396Z,2820.00
2023-03-27T14:34:22.506Z,1260.00
2023-03-27T14:35:22.558Z,1400.00
2023-03-27T14:36:22.590Z,1456.00
2023-03-27T14:37:22.677Z,1116.00
2023-03-27T14:38:22.745Z,1040.00
2023-03-27T14:39:22.779Z,1036.00
2023-03-27T14:40:22.853Z,1984.00
2023-03-27T14:41:22.943Z,1492.00
2023-03-27T14:42:23.180Z,936.00
2023-03-27T14:43:23.073Z,1468.00
2023-03-27T14:44:23.077Z,1060.00
2023-03-27T14:45:23.238Z,1424.00
2023-03-27T14:46:23.358Z,1356.00
2023-03-27T14:47:23.269Z,1212.00
2023-03-27T14:48:23.370Z,2604.00
2023-03-27T14:49:24.653Z,1452.00
2023-03-27T14:50:23.449Z,1048.00
2023-03-27T14:51:23.508Z,880.00
2023-03-27T14:52:23.575Z,836.00
2023-03-27T14:53:23.610Z,980.00
2023-03-27T14:54:23.703Z,1224.00
2023-03-27T14:55:23.723Z,956.00
2023-03-27T14:56:24.380Z,1284.00
2023-03-27T14:57:23.947Z,1312.00
2023-03-27T14:58:23.971Z,1388.00
2023-03-27T14:59:23.937Z,1284.00
2023-03-27T15:00:24.939Z,1244.00
2023-03-27T15:01:24.176Z,1452.00
2023-03-27T15:02:24.203Z,2384.00
2023-03-27T15:03:24.349Z,2424.00
2023-03-27T15:04:24.214Z,2540.00
2023-03-27T15:05:24.386Z,2596.00
2023-03-27T15:06:24.385Z,1812.00
2023-03-27T15:07:24.604Z,1696.00
2023-03-27T15:08:24.433Z,2356.00
2023-03-27T15:09:24.536Z,2808.00
2023-03-27T15:10:24.710Z,2092.00
2023-03-27T15:11:24.699Z,1364.00
2023-03-27T15:12:24.724Z,1564.00
2023-03-27T15:13:25.007Z,1468.00
2023-03-27T15:14:24.943Z,1508.00
2023-03-27T15:15:24.969Z,1300.00
2023-03-27T15:16:25.066Z,1280.00
2023-03-27T15:17:25.071Z,1348.00
2023-03-27T15:18:25.347Z,1240.00
2023-03-27T15:19:25.166Z,1160.00
2023-03-27T15:20:25.301Z,1104.00
2023-03-27T15:21:25.317Z,1052.00
2023-03-27T15:22:25.390Z,868.00
2023-03-27T15:23:25.471Z,856.00
2023-03-27T15:24:25.640Z,1080.00
2023-03-27T15:25:25.555Z,1308.00
2023-03-27T15:26:25.644Z,1384.00
2023-03-27T15:27:25.844Z,1332.00
2023-03-27T15:28:25.768Z,1212.00
2023-03-27T15:29:25.828Z,1288.00
2023-03-27T15:30:25.891Z,1332.00
2023-03-27T15:31:26.110Z,1416.00
2023-03-27T15:32:26.077Z,2124.00
2023-03-27T15:33:26.066Z,1628.00
2023-03-27T15:34:26.148Z,1748.00
2023-03-27T15:35:26.129Z,2632.00
2023-03-27T15:36:26.270Z,2204.00
2023-03-27T15:37:30.146Z,2548.00
2023-03-27T15:38:29.285Z,1892.00
2023-03-27T15:39:30.222Z,1620.00
2023-03-27T15:40:29.882Z,1788.00
2023-03-27T15:41:31.085Z,1616.00
2023-03-27T15:42:26.552Z,2648.00
2023-03-27T15:43:26.644Z,2636.00
2023-03-27T15:44:26.745Z,2608.00
2023-03-27T15:45:26.772Z,1524.00
2023-03-27T15:46:26.933Z,2460.00
2023-03-27T15:47:27.039Z,2388.00
2023-03-27T15:48:26.956Z,2296.00
2023-03-27T15:49:27.030Z,2144.00
2023-03-27T15:50:27.075Z,1488.00
2023-03-27T15:51:27.137Z,1232.00
2023-03-27T15:52:27.280Z,1336.00
2023-03-27T15:53:27.244Z,1204.00
2023-03-27T15:54:27.308Z,1204.00
2023-03-27T15:55:27.361Z,1760.00
2023-03-27T15:56:27.414Z,1260.00
2023-03-27T15:57:27.543Z,1244.00
2023-03-27T15:58:27.550Z,1236.00
2023-03-27T15:59:27.582Z,1248.00
2023-03-27T16:00:28.930Z,1232.00
2023-03-27T16:01:27.813Z,1140.00
2023-03-27T16:02:27.927Z,996.00
2023-03-27T16:03:27.944Z,688.00
2023-03-27T16:04:27.969Z,532.00
2023-03-27T16:05:28.004Z,464.00
2023-03-27T16:06:28.088Z,416.00
2023-03-27T16:07:28.181Z,400.00
2023-03-27T16:08:28.859Z,368.00
2023-03-27T16:09:28.244Z,340.00
2023-03-27T16:10:28.311Z,264.00
2023-03-27T16:11:28.458Z,232.00
2023-03-27T16:12:28.456Z,232.00
2023-03-27T16:13:28.464Z,228.00
2023-03-27T16:14:28.660Z,272.00
2023-03-27T16:15:28.596Z,336.00
2023-03-27T16:16:28.698Z,388.00
2023-03-27T16:17:28.722Z,392.00
2023-03-27T16:18:28.819Z,448.00
2023-03-27T16:19:28.918Z,692.00
2023-03-27T16:20:28.904Z,932.00
2023-03-27T16:21:28.990Z,996.00
2023-03-27T16:22:29.043Z,972.00
2023-03-27T16:23:29.116Z,772.00
2023-03-27T16:24:29.273Z,792.00
2023-03-27T16:25:29.200Z,920.00
2023-03-27T16:26:29.964Z,824.00
2023-03-27T16:27:29.314Z,644.00
2023-03-27T16:28:29.361Z,544.00
2023-03-27T16:29:29.414Z,492.00
2023-03-27T16:30:29.444Z,604.00
2023-03-27T16:31:29.912Z,588.00
2023-03-27T16:32:29.595Z,584.00
2023-03-27T16:33:29.624Z,588.00
2023-03-27T16:34:29.688Z,580.00
2023-03-27T16:35:29.797Z,572.00
2023-03-27T16:36:29.822Z,556.00
2023-03-27T16:37:30.065Z,548.00
2023-03-27T16:38:30.172Z,464.00
2023-03-27T16:39:30.026Z,520.00
2023-03-27T16:40:30.098Z,548.00
2023-03-27T16:41:30.267Z,584.00
2023-03-27T16:42:30.278Z,584.00
2023-03-27T16:43:30.290Z,612.00
2023-03-27T16:44:30.369Z,532.00
2023-03-27T16:45:30.614Z,488.00
2023-03-27T16:46:30.548Z,444.00
2023-03-27T16:47:30.851Z,412.00
2023-03-27T16:48:30.598Z,400.00
2023-03-27T16:49:30.782Z,396.00
2023-03-27T16:50:30.925Z,400.00
2023-03-27T16:51:31.116Z,408.00
2023-03-27T16:52:32.085Z,408.00
2023-03-27T16:53:31.221Z,392.00
2023-03-27T16:54:31.433Z,384.00
2023-03-27T16:55:31.482Z,388.00
2023-03-27T16:56:31.227Z,384.00
2023-03-27T16:57:31.311Z,376.00
2023-03-27T16:58:31.286Z,364.00
2023-03-27T16:59:31.645Z,364.00
2023-03-27T17:00:31.630Z,356.00
2023-03-27T17:01:31.541Z,344.00
2023-03-27T17:02:34.605Z,324.00
2023-03-27T17:03:36.681Z,308.00
2023-03-27T17:04:31.655Z,296.00
2023-03-27T17:05:32.407Z,280.00
2023-03-27T17:06:32.012Z,272.00
2023-03-27T17:07:31.845Z,264.00
2023-03-27T17:08:31.950Z,252.00
2023-03-27T17:09:31.951Z,244.00
2023-03-27T17:10:32.002Z,236.00
2023-03-27T17:11:33.540Z,232.00
2023-03-27T17:12:32.236Z,224.00
2023-03-27T17:13:32.230Z,216.00
2023-03-27T17:14:32.266Z,212.00
2023-03-27T17:15:34.455Z,204.00
2023-03-27T17:16:37.275Z,200.00
2023-03-27T17:17:37.332Z,192.00
2023-03-27T17:18:34.391Z,184.00
2023-03-27T17:19:32.589Z,180.00
2023-03-27T17:20:32.641Z,176.00
2023-03-27T17:21:32.732Z,172.00
2023-03-27T17:22:32.806Z,168.00
2023-03-27T17:23:32.887Z,160.00
2023-03-27T17:24:38.086Z,156.00
2023-03-27T17:25:32.983Z,148.00
2023-03-27T17:26:33.032Z,144.00
2023-03-27T17:27:33.786Z,140.00
2023-03-27T17:28:33.188Z,136.00
2023-03-27T17:29:33.184Z,128.00
2023-03-27T17:30:40.985Z,124.00
2023-03-27T17:31:33.395Z,120.00
2023-03-27T17:32:33.967Z,108.00
2023-03-27T17:33:33.536Z,104.00
2023-03-27T17:34:33.511Z,100.00
2023-03-27T17:35:33.608Z,96.00
2023-03-27T17:36:42.910Z,92.00
2023-03-27T17:37:33.698Z,84.00
2023-03-27T17:38:33.975Z,80.00
2023-03-27T17:39:33.837Z,76.00
2023-03-27T17:40:34.018Z,76.00
2023-03-27T17:41:33.982Z,68.00
2023-03-27T17:42:34.176Z,64.00
2023-03-27T17:43:34.384Z,64.00
2023-03-27T17:44:34.157Z,56.00